Terminal Aerodrome Forecast
Issued by NWS Sterling, VA

Home | Current Version | Previous Version | Text Only | Print | Product List | Glossary On
Versions: 1 2 3 4 5 6 7 8 9 10 11 12 13 14 15 16 17 18
000
FTUS41 KLWX 211200 AAA
TAFMRB
TAF AMD
KMRB 211222Z 2112/2212 00000KT 3SM BR SCT005
     FM211300 VRB03KT P6SM BKN060
     FM211800 29006KT 5SM -SHRA BKN040
     FM212100 28005KT P6SM OVC040
     FM220200 32005KT P6SM OVC030
     FM220400 34006KT P6SM OVC020=

USA.gov is the U.S. government's official web portal to all federal, state and local government web resources and services.